Terminal Aerodrome Forecast
Issued by NWS Topeka, KS

Home | Current Version | Previous Version | Text Only | Print | Product List | Glossary On
Versions: 1 2 3 4 5 6 7 8 9 10 11 12 13 14 15 16 17 18 19 20 21 22 23 24 25
617
FTUS43 KTOP 290706 AAC
TAFTOP
TAF AMD
KTOP 290706Z 2907/3006 04014KT 3SM TSRA BR SCT015 OVC040CB
      TEMPO 2907/2909 OVC015CB
     FM290900 06014KT 3SM SHRA BR VCTS OVC009CB
     FM291500 06015G23KT 2SM SHRA BR OVC006
     FM291800 08015G23KT 2SM SHRA BR VCTS OVC006CB
     FM300000 05009KT 3SM -SHRA BR OVC080=

USA.gov is the U.S. government's official web portal to all federal, state and local government web resources and services.